sensor_id;sensor_type;location;lat;lon;timestamp;P1;durP1;ratioP1;P2;durP2;ratioP2
75090;SDS011;63674;48.048;8.306;2024-02-26T00:02:02;5.50;;;1.85;;
75090;SDS011;63674;48.048;8.306;2024-02-26T00:04:31;6.25;;;2.47;;
75090;SDS011;63674;48.048;8.306;2024-02-26T00:06:59;5.25;;;1.90;;
75090;SDS011;63674;48.048;8.306;2024-02-26T00:09:28;6.22;;;2.20;;
75090;SDS011;63674;48.048;8.306;2024-02-26T00:11:58;7.55;;;2.67;;
75090;SDS011;63674;48.048;8.306;2024-02-26T00:14:27;6.53;;;2.50;;
75090;SDS011;63674;48.048;8.306;2024-02-26T00:16:55;6.45;;;2.47;;
75090;SDS011;63674;48.048;8.306;2024-02-26T00:19:25;6.70;;;2.45;;
75090;SDS011;63674;48.048;8.306;2024-02-26T00:21:54;6.20;;;2.60;;
75090;SDS011;63674;48.048;8.306;2024-02-26T00:24:23;7.40;;;2.63;;
75090;SDS011;63674;48.048;8.306;2024-02-26T00:26:53;6.38;;;2.33;;
75090;SDS011;63674;48.048;8.306;2024-02-26T00:29:22;6.40;;;2.17;;
75090;SDS011;63674;48.048;8.306;2024-02-26T00:31:51;5.80;;;2.20;;
75090;SDS011;63674;48.048;8.306;2024-02-26T00:34:19;7.93;;;2.10;;
75090;SDS011;63674;48.048;8.306;2024-02-26T00:36:50;6.07;;;1.98;;
75090;SDS011;63674;48.048;8.306;2024-02-26T00:39:18;5.78;;;2.10;;
75090;SDS011;63674;48.048;8.306;2024-02-26T00:41:47;5.05;;;1.75;;
75090;SDS011;63674;48.048;8.306;2024-02-26T00:44:18;5.32;;;1.60;;
75090;SDS011;63674;48.048;8.306;2024-02-26T00:46:46;6.07;;;2.30;;
75090;SDS011;63674;48.048;8.306;2024-02-26T00:49:15;5.90;;;2.03;;
75090;SDS011;63674;48.048;8.306;2024-02-26T00:51:44;5.70;;;1.92;;
75090;SDS011;63674;48.048;8.306;2024-02-26T00:54:13;6.05;;;1.95;;
75090;SDS011;63674;48.048;8.306;2024-02-26T00:56:42;6.80;;;1.80;;
75090;SDS011;63674;48.048;8.306;2024-02-26T00:59:11;5.05;;;1.55;;
75090;SDS011;63674;48.048;8.306;2024-02-26T01:01:39;4.93;;;1.45;;
75090;SDS011;63674;48.048;8.306;2024-02-26T01:04:08;4.50;;;1.30;;
75090;SDS011;63674;48.048;8.306;2024-02-26T01:06:37;4.13;;;1.20;;
75090;SDS011;63674;48.048;8.306;2024-02-26T01:09:06;4.32;;;1.40;;
75090;SDS011;63674;48.048;8.306;2024-02-26T01:11:38;5.32;;;1.50;;
75090;SDS011;63674;48.048;8.306;2024-02-26T01:14:06;4.60;;;1.40;;
75090;SDS011;63674;48.048;8.306;2024-02-26T01:16:35;4.50;;;1.70;;
75090;SDS011;63674;48.048;8.306;2024-02-26T01:19:04;4.68;;;1.50;;
75090;SDS011;63674;48.048;8.306;2024-02-26T01:21:33;4.57;;;1.48;;
75090;SDS011;63674;48.048;8.306;2024-02-26T01:24:01;4.28;;;1.42;;
75090;SDS011;63674;48.048;8.306;2024-02-26T01:26:30;5.55;;;1.58;;
75090;SDS011;63674;48.048;8.306;2024-02-26T01:29:00;4.30;;;1.50;;
75090;SDS011;63674;48.048;8.306;2024-02-26T01:31:29;6.65;;;2.22;;
75090;SDS011;63674;48.048;8.306;2024-02-26T01:33:57;8.32;;;2.63;;
75090;SDS011;63674;48.048;8.306;2024-02-26T01:36:26;7.95;;;2.92;;
75090;SDS011;63674;48.048;8.306;2024-02-26T01:38:55;7.43;;;2.53;;
75090;SDS011;63674;48.048;8.306;2024-02-26T01:41:23;7.38;;;3.22;;
75090;SDS011;63674;48.048;8.306;2024-02-26T01:43:52;6.80;;;2.63;;
75090;SDS011;63674;48.048;8.306;2024-02-26T01:46:22;6.25;;;2.38;;
75090;SDS011;63674;48.048;8.306;2024-02-26T01:48:51;5.97;;;2.10;;
75090;SDS011;63674;48.048;8.306;2024-02-26T01:51:20;5.78;;;1.90;;
75090;SDS011;63674;48.048;8.306;2024-02-26T01:53:48;5.38;;;1.70;;
75090;SDS011;63674;48.048;8.306;2024-02-26T01:56:17;7.45;;;2.20;;
75090;SDS011;63674;48.048;8.306;2024-02-26T01:58:47;5.57;;;2.08;;
75090;SDS011;63674;48.048;8.306;2024-02-26T02:01:16;5.53;;;1.92;;
75090;SDS011;63674;48.048;8.306;2024-02-26T02:03:48;5.28;;;1.70;;
75090;SDS011;63674;48.048;8.306;2024-02-26T02:06:17;5.38;;;1.83;;
75090;SDS011;63674;48.048;8.306;2024-02-26T02:08:46;4.68;;;1.50;;
75090;SDS011;63674;48.048;8.306;2024-02-26T02:11:16;4.60;;;1.60;;
75090;SDS011;63674;48.048;8.306;2024-02-26T02:13:45;4.78;;;1.60;;
75090;SDS011;63674;48.048;8.306;2024-02-26T02:16:13;4.82;;;1.65;;
75090;SDS011;63674;48.048;8.306;2024-02-26T02:18:42;4.50;;;1.50;;
75090;SDS011;63674;48.048;8.306;2024-02-26T02:21:12;5.03;;;1.52;;
75090;SDS011;63674;48.048;8.306;2024-02-26T02:23:41;3.80;;;1.10;;
75090;SDS011;63674;48.048;8.306;2024-02-26T02:26:13;3.60;;;1.00;;
75090;SDS011;63674;48.048;8.306;2024-02-26T02:28:42;4.53;;;0.95;;
75090;SDS011;63674;48.048;8.306;2024-02-26T02:31:12;4.38;;;1.40;;
75090;SDS011;63674;48.048;8.306;2024-02-26T02:33:59;4.45;;;1.30;;
75090;SDS011;63674;48.048;8.306;2024-02-26T02:36:52;4.30;;;1.23;;
75090;SDS011;63674;48.048;8.306;2024-02-26T02:39:40;5.00;;;1.60;;
75090;SDS011;63674;48.048;8.306;2024-02-26T02:42:28;5.50;;;1.50;;
75090;SDS011;63674;48.048;8.306;2024-02-26T02:45:15;3.67;;;1.00;;
75090;SDS011;63674;48.048;8.306;2024-02-26T02:48:03;4.28;;;1.30;;
75090;SDS011;63674;48.048;8.306;2024-02-26T02:50:51;4.57;;;1.13;;
75090;SDS011;63674;48.048;8.306;2024-02-26T02:53:40;3.88;;;1.10;;
75090;SDS011;63674;48.048;8.306;2024-02-26T02:56:27;4.90;;;1.38;;
75090;SDS011;63674;48.048;8.306;2024-02-26T02:59:14;4.20;;;1.33;;
75090;SDS011;63674;48.048;8.306;2024-02-26T03:02:01;3.97;;;1.20;;
75090;SDS011;63674;48.048;8.306;2024-02-26T03:04:48;4.90;;;1.27;;
75090;SDS011;63674;48.048;8.306;2024-02-26T03:07:35;4.63;;;1.40;;
75090;SDS011;63674;48.048;8.306;2024-02-26T03:10:24;5.25;;;1.58;;
75090;SDS011;63674;48.048;8.306;2024-02-26T03:13:11;5.63;;;1.58;;
75090;SDS011;63674;48.048;8.306;2024-02-26T03:16:03;5.53;;;2.03;;
75090;SDS011;63674;48.048;8.306;2024-02-26T03:18:51;5.13;;;1.80;;
75090;SDS011;63674;48.048;8.306;2024-02-26T03:21:39;5.60;;;2.00;;
75090;SDS011;63674;48.048;8.306;2024-02-26T03:24:26;5.22;;;1.77;;
75090;SDS011;63674;48.048;8.306;2024-02-26T03:27:14;4.30;;;1.50;;
75090;SDS011;63674;48.048;8.306;2024-02-26T03:30:02;4.43;;;1.30;;
75090;SDS011;63674;48.048;8.306;2024-02-26T03:32:50;4.82;;;1.30;;
75090;SDS011;63674;48.048;8.306;2024-02-26T03:35:37;5.35;;;1.23;;
75090;SDS011;63674;48.048;8.306;2024-02-26T03:38:24;6.43;;;2.10;;
75090;SDS011;63674;48.048;8.306;2024-02-26T03:41:11;12.07;;;3.30;;
75090;SDS011;63674;48.048;8.306;2024-02-26T03:44:00;5.38;;;1.13;;
75090;SDS011;63674;48.048;8.306;2024-02-26T03:46:38;5.53;;;1.17;;
75090;SDS011;63674;48.048;8.306;2024-02-26T03:49:09;3.97;;;0.90;;
75090;SDS011;63674;48.048;8.306;2024-02-26T03:51:38;3.25;;;0.60;;
75090;SDS011;63674;48.048;8.306;2024-02-26T03:54:06;3.60;;;0.73;;
75090;SDS011;63674;48.048;8.306;2024-02-26T03:56:35;4.07;;;0.80;;
75090;SDS011;63674;48.048;8.306;2024-02-26T03:59:05;4.28;;;1.05;;
75090;SDS011;63674;48.048;8.306;2024-02-26T04:01:33;4.07;;;1.10;;
75090;SDS011;63674;48.048;8.306;2024-02-26T04:04:02;3.53;;;0.80;;
75090;SDS011;63674;48.048;8.306;2024-02-26T04:06:30;3.42;;;0.95;;
75090;SDS011;63674;48.048;8.306;2024-02-26T04:08:59;3.20;;;0.65;;
75090;SDS011;63674;48.048;8.306;2024-02-26T04:11:30;2.90;;;0.60;;
75090;SDS011;63674;48.048;8.306;2024-02-26T04:13:59;3.65;;;0.85;;
75090;SDS011;63674;48.048;8.306;2024-02-26T04:16:30;3.33;;;0.55;;
75090;SDS011;63674;48.048;8.306;2024-02-26T04:18:59;3.20;;;0.90;;
75090;SDS011;63674;48.048;8.306;2024-02-26T04:21:28;5.80;;;1.27;;
75090;SDS011;63674;48.048;8.306;2024-02-26T04:23:57;9.45;;;2.35;;
75090;SDS011;63674;48.048;8.306;2024-02-26T04:26:28;4.35;;;1.15;;
75090;SDS011;63674;48.048;8.306;2024-02-26T04:28:58;4.53;;;1.15;;
75090;SDS011;63674;48.048;8.306;2024-02-26T04:31:26;4.10;;;1.00;;
75090;SDS011;63674;48.048;8.306;2024-02-26T04:33:56;3.50;;;0.70;;
75090;SDS011;63674;48.048;8.306;2024-02-26T04:36:25;3.17;;;0.93;;
75090;SDS011;63674;48.048;8.306;2024-02-26T04:38:54;3.70;;;0.68;;
75090;SDS011;63674;48.048;8.306;2024-02-26T04:41:22;3.10;;;0.60;;
75090;SDS011;63674;48.048;8.306;2024-02-26T04:43:51;3.65;;;0.40;;
75090;SDS011;63674;48.048;8.306;2024-02-26T04:46:19;3.00;;;0.60;;
75090;SDS011;63674;48.048;8.306;2024-02-26T04:48:49;3.00;;;0.70;;
75090;SDS011;63674;48.048;8.306;2024-02-26T04:51:21;2.90;;;0.70;;
75090;SDS011;63674;48.048;8.306;2024-02-26T04:53:50;4.10;;;1.25;;
75090;SDS011;63674;48.048;8.306;2024-02-26T04:56:20;3.20;;;0.90;;
75090;SDS011;63674;48.048;8.306;2024-02-26T04:58:48;2.88;;;0.57;;
75090;SDS011;63674;48.048;8.306;2024-02-26T05:01:17;3.05;;;0.80;;
75090;SDS011;63674;48.048;8.306;2024-02-26T05:03:46;3.10;;;0.88;;
75090;SDS011;63674;48.048;8.306;2024-02-26T05:06:15;3.20;;;0.85;;
75090;SDS011;63674;48.048;8.306;2024-02-26T05:08:45;2.90;;;0.50;;
75090;SDS011;63674;48.048;8.306;2024-02-26T05:11:14;2.53;;;0.43;;
75090;SDS011;63674;48.048;8.306;2024-02-26T05:13:44;3.90;;;1.00;;
75090;SDS011;63674;48.048;8.306;2024-02-26T05:16:13;2.67;;;0.43;;
75090;SDS011;63674;48.048;8.306;2024-02-26T05:18:41;3.20;;;0.70;;
75090;SDS011;63674;48.048;8.306;2024-02-26T05:21:10;3.28;;;0.88;;
75090;SDS011;63674;48.048;8.306;2024-02-26T05:23:39;3.25;;;0.40;;
75090;SDS011;63674;48.048;8.306;2024-02-26T05:26:11;2.40;;;0.50;;
75090;SDS011;63674;48.048;8.306;2024-02-26T05:28:47;2.90;;;0.80;;
75090;SDS011;63674;48.048;8.306;2024-02-26T05:31:16;2.60;;;0.40;;
75090;SDS011;63674;48.048;8.306;2024-02-26T05:33:45;3.00;;;0.60;;
75090;SDS011;63674;48.048;8.306;2024-02-26T05:36:17;3.75;;;0.60;;
75090;SDS011;63674;48.048;8.306;2024-02-26T05:38:48;3.00;;;0.60;;
75090;SDS011;63674;48.048;8.306;2024-02-26T05:41:18;2.95;;;0.60;;
75090;SDS011;63674;48.048;8.306;2024-02-26T05:43:50;6.15;;;0.60;;
75090;SDS011;63674;48.048;8.306;2024-02-26T05:46:18;2.92;;;0.63;;
75090;SDS011;63674;48.048;8.306;2024-02-26T05:48:48;3.10;;;0.60;;
75090;SDS011;63674;48.048;8.306;2024-02-26T05:51:18;3.72;;;0.85;;
75090;SDS011;63674;48.048;8.306;2024-02-26T05:53:47;2.90;;;0.60;;
75090;SDS011;63674;48.048;8.306;2024-02-26T05:56:22;3.50;;;0.80;;
75090;SDS011;63674;48.048;8.306;2024-02-26T05:58:51;3.22;;;0.70;;
75090;SDS011;63674;48.048;8.306;2024-02-26T06:01:20;3.90;;;0.60;;
75090;SDS011;63674;48.048;8.306;2024-02-26T06:03:50;3.08;;;0.68;;
75090;SDS011;63674;48.048;8.306;2024-02-26T06:06:18;2.95;;;0.55;;
75090;SDS011;63674;48.048;8.306;2024-02-26T06:08:49;2.90;;;0.57;;
75090;SDS011;63674;48.048;8.306;2024-02-26T06:11:18;3.17;;;0.82;;
75090;SDS011;63674;48.048;8.306;2024-02-26T06:13:48;2.80;;;0.60;;
75090;SDS011;63674;48.048;8.306;2024-02-26T06:16:16;4.00;;;0.60;;
75090;SDS011;63674;48.048;8.306;2024-02-26T06:18:45;2.90;;;0.60;;
75090;SDS011;63674;48.048;8.306;2024-02-26T06:21:14;4.65;;;0.70;;
75090;SDS011;63674;48.048;8.306;2024-02-26T06:23:43;2.50;;;0.43;;
75090;SDS011;63674;48.048;8.306;2024-02-26T06:26:11;2.80;;;0.50;;
75090;SDS011;63674;48.048;8.306;2024-02-26T06:28:40;2.80;;;0.50;;
75090;SDS011;63674;48.048;8.306;2024-02-26T06:31:10;2.83;;;0.50;;
75090;SDS011;63674;48.048;8.306;2024-02-26T06:33:38;2.70;;;0.40;;
75090;SDS011;63674;48.048;8.306;2024-02-26T06:36:07;2.50;;;0.40;;
75090;SDS011;63674;48.048;8.306;2024-02-26T06:38:36;2.65;;;0.60;;
75090;SDS011;63674;48.048;8.306;2024-02-26T06:41:04;2.75;;;0.60;;
75090;SDS011;63674;48.048;8.306;2024-02-26T06:43:33;2.90;;;0.47;;
75090;SDS011;63674;48.048;8.306;2024-02-26T06:46:01;3.10;;;0.60;;
75090;SDS011;63674;48.048;8.306;2024-02-26T06:48:32;2.78;;;0.50;;
75090;SDS011;63674;48.048;8.306;2024-02-26T06:51:00;2.67;;;0.50;;
75090;SDS011;63674;48.048;8.306;2024-02-26T06:53:30;3.25;;;0.70;;
75090;SDS011;63674;48.048;8.306;2024-02-26T06:55:58;2.80;;;0.60;;
75090;SDS011;63674;48.048;8.306;2024-02-26T06:58:26;3.00;;;0.57;;
75090;SDS011;63674;48.048;8.306;2024-02-26T07:00:55;3.10;;;0.60;;
75090;SDS011;63674;48.048;8.306;2024-02-26T07:03:23;2.60;;;0.60;;
75090;SDS011;63674;48.048;8.306;2024-02-26T07:05:54;2.78;;;0.65;;
75090;SDS011;63674;48.048;8.306;2024-02-26T07:08:22;2.72;;;0.60;;
75090;SDS011;63674;48.048;8.306;2024-02-26T07:10:51;2.80;;;0.50;;
75090;SDS011;63674;48.048;8.306;2024-02-26T07:13:20;2.92;;;0.50;;
75090;SDS011;63674;48.048;8.306;2024-02-26T07:15:48;2.67;;;0.40;;
75090;SDS011;63674;48.048;8.306;2024-02-26T07:18:17;12.60;;;5.32;;
75090;SDS011;63674;48.048;8.306;2024-02-26T07:20:45;7.43;;;3.10;;
75090;SDS011;63674;48.048;8.306;2024-02-26T07:23:16;4.65;;;1.50;;
75090;SDS011;63674;48.048;8.306;2024-02-26T07:25:44;4.38;;;0.98;;
75090;SDS011;63674;48.048;8.306;2024-02-26T07:28:15;3.92;;;0.70;;
75090;SDS011;63674;48.048;8.306;2024-02-26T07:30:43;6.53;;;2.00;;
75090;SDS011;63674;48.048;8.306;2024-02-26T07:33:12;5.40;;;1.90;;
75090;SDS011;63674;48.048;8.306;2024-02-26T07:35:41;5.97;;;2.38;;
75090;SDS011;63674;48.048;8.306;2024-02-26T07:38:09;5.20;;;1.80;;
75090;SDS011;63674;48.048;8.306;2024-02-26T07:40:58;6.10;;;1.67;;
75090;SDS011;63674;48.048;8.306;2024-02-26T07:43:29;5.07;;;1.70;;
75090;SDS011;63674;48.048;8.306;2024-02-26T07:45:58;5.20;;;1.90;;
75090;SDS011;63674;48.048;8.306;2024-02-26T07:48:26;5.45;;;1.50;;
75090;SDS011;63674;48.048;8.306;2024-02-26T07:50:56;4.40;;;1.48;;
75090;SDS011;63674;48.048;8.306;2024-02-26T07:53:26;4.97;;;1.60;;
75090;SDS011;63674;48.048;8.306;2024-02-26T07:55:55;6.45;;;1.60;;
75090;SDS011;63674;48.048;8.306;2024-02-26T07:58:25;5.30;;;1.52;;
75090;SDS011;63674;48.048;8.306;2024-02-26T08:00:53;5.88;;;1.63;;
75090;SDS011;63674;48.048;8.306;2024-02-26T08:03:22;5.60;;;1.60;;
75090;SDS011;63674;48.048;8.306;2024-02-26T08:05:51;5.50;;;1.50;;
75090;SDS011;63674;48.048;8.306;2024-02-26T08:08:20;4.90;;;1.60;;
75090;SDS011;63674;48.048;8.306;2024-02-26T08:10:48;5.47;;;1.20;;
75090;SDS011;63674;48.048;8.306;2024-02-26T08:13:17;7.28;;;1.60;;
75090;SDS011;63674;48.048;8.306;2024-02-26T08:15:46;4.45;;;1.30;;
75090;SDS011;63674;48.048;8.306;2024-02-26T08:18:15;6.47;;;3.15;;
75090;SDS011;63674;48.048;8.306;2024-02-26T08:20:44;6.85;;;3.15;;
75090;SDS011;63674;48.048;8.306;2024-02-26T08:23:12;7.07;;;2.65;;
75090;SDS011;63674;48.048;8.306;2024-02-26T08:25:43;7.85;;;3.15;;
75090;SDS011;63674;48.048;8.306;2024-02-26T08:28:11;7.63;;;2.33;;
75090;SDS011;63674;48.048;8.306;2024-02-26T08:30:40;6.00;;;1.90;;
75090;SDS011;63674;48.048;8.306;2024-02-26T08:33:10;6.95;;;2.58;;
75090;SDS011;63674;48.048;8.306;2024-02-26T08:35:40;8.95;;;3.10;;
75090;SDS011;63674;48.048;8.306;2024-02-26T08:38:09;8.55;;;2.85;;
75090;SDS011;63674;48.048;8.306;2024-02-26T08:40:37;7.95;;;3.10;;
75090;SDS011;63674;48.048;8.306;2024-02-26T08:43:06;7.93;;;2.40;;
75090;SDS011;63674;48.048;8.306;2024-02-26T08:45:35;8.05;;;2.13;;
75090;SDS011;63674;48.048;8.306;2024-02-26T08:48:05;7.57;;;1.60;;
75090;SDS011;63674;48.048;8.306;2024-02-26T08:50:36;5.15;;;1.42;;
75090;SDS011;63674;48.048;8.306;2024-02-26T08:53:05;6.13;;;2.15;;
75090;SDS011;63674;48.048;8.306;2024-02-26T08:55:34;5.47;;;1.80;;
75090;SDS011;63674;48.048;8.306;2024-02-26T08:58:02;5.10;;;1.30;;
75090;SDS011;63674;48.048;8.306;2024-02-26T09:00:31;5.37;;;1.27;;
75090;SDS011;63674;48.048;8.306;2024-02-26T09:03:00;7.72;;;2.30;;
75090;SDS011;63674;48.048;8.306;2024-02-26T09:05:31;8.80;;;2.53;;
75090;SDS011;63674;48.048;8.306;2024-02-26T09:08:01;7.25;;;2.40;;
75090;SDS011;63674;48.048;8.306;2024-02-26T09:10:30;5.93;;;1.67;;
75090;SDS011;63674;48.048;8.306;2024-02-26T09:12:59;6.40;;;2.00;;
75090;SDS011;63674;48.048;8.306;2024-02-26T09:15:28;6.68;;;2.08;;
75090;SDS011;63674;48.048;8.306;2024-02-26T09:17:56;5.10;;;1.60;;
75090;SDS011;63674;48.048;8.306;2024-02-26T09:20:26;6.03;;;1.83;;
75090;SDS011;63674;48.048;8.306;2024-02-26T09:22:54;5.45;;;2.40;;
75090;SDS011;63674;48.048;8.306;2024-02-26T09:25:24;5.40;;;1.97;;
75090;SDS011;63674;48.048;8.306;2024-02-26T09:27:54;7.30;;;3.40;;
75090;SDS011;63674;48.048;8.306;2024-02-26T09:30:22;8.15;;;3.60;;
75090;SDS011;63674;48.048;8.306;2024-02-26T09:32:51;9.38;;;3.60;;
75090;SDS011;63674;48.048;8.306;2024-02-26T09:35:20;7.95;;;3.75;;
75090;SDS011;63674;48.048;8.306;2024-02-26T09:37:48;6.77;;;3.10;;
75090;SDS011;63674;48.048;8.306;2024-02-26T09:40:17;7.97;;;3.20;;
75090;SDS011;63674;48.048;8.306;2024-02-26T09:42:47;7.55;;;3.22;;
75090;SDS011;63674;48.048;8.306;2024-02-26T09:45:18;8.00;;;2.83;;
75090;SDS011;63674;48.048;8.306;2024-02-26T09:47:48;5.88;;;2.35;;
75090;SDS011;63674;48.048;8.306;2024-02-26T09:50:17;6.83;;;2.80;;
75090;SDS011;63674;48.048;8.306;2024-02-26T09:52:49;5.90;;;2.40;;
75090;SDS011;63674;48.048;8.306;2024-02-26T09:55:20;6.93;;;2.63;;
75090;SDS011;63674;48.048;8.306;2024-02-26T09:57:51;5.80;;;2.30;;
75090;SDS011;63674;48.048;8.306;2024-02-26T10:00:20;5.10;;;1.80;;
75090;SDS011;63674;48.048;8.306;2024-02-26T10:02:50;6.30;;;1.33;;
75090;SDS011;63674;48.048;8.306;2024-02-26T10:05:20;5.30;;;1.55;;
75090;SDS011;63674;48.048;8.306;2024-02-26T10:07:49;4.47;;;1.20;;
75090;SDS011;63674;48.048;8.306;2024-02-26T10:10:18;4.45;;;1.23;;
75090;SDS011;63674;48.048;8.306;2024-02-26T10:12:47;4.88;;;1.60;;
75090;SDS011;63674;48.048;8.306;2024-02-26T10:15:17;6.60;;;1.80;;
75090;SDS011;63674;48.048;8.306;2024-02-26T10:17:46;8.55;;;1.70;;
75090;SDS011;63674;48.048;8.306;2024-02-26T10:20:15;4.20;;;1.10;;
75090;SDS011;63674;48.048;8.306;2024-02-26T10:22:45;4.03;;;1.30;;
75090;SDS011;63674;48.048;8.306;2024-02-26T10:25:15;3.70;;;0.80;;
75090;SDS011;63674;48.048;8.306;2024-02-26T10:27:43;4.17;;;1.30;;
75090;SDS011;63674;48.048;8.306;2024-02-26T10:30:17;4.10;;;1.30;;
75090;SDS011;63674;48.048;8.306;2024-02-26T10:32:48;6.70;;;2.35;;
75090;SDS011;63674;48.048;8.306;2024-02-26T10:35:18;3.20;;;0.75;;
75090;SDS011;63674;48.048;8.306;2024-02-26T10:37:48;3.40;;;0.80;;
75090;SDS011;63674;48.048;8.306;2024-02-26T10:40:17;4.57;;;1.30;;
75090;SDS011;63674;48.048;8.306;2024-02-26T10:42:46;3.92;;;1.10;;
75090;SDS011;63674;48.048;8.306;2024-02-26T10:45:16;4.05;;;1.10;;
75090;SDS011;63674;48.048;8.306;2024-02-26T10:47:45;9.88;;;3.00;;
75090;SDS011;63674;48.048;8.306;2024-02-26T10:50:14;3.20;;;0.70;;
75090;SDS011;63674;48.048;8.306;2024-02-26T10:52:43;4.20;;;1.30;;
75090;SDS011;63674;48.048;8.306;2024-02-26T10:55:13;3.70;;;1.30;;
75090;SDS011;63674;48.048;8.306;2024-02-26T10:57:45;4.47;;;1.58;;
75090;SDS011;63674;48.048;8.306;2024-02-26T11:00:17;4.70;;;2.20;;
75090;SDS011;63674;48.048;8.306;2024-02-26T11:02:46;9.45;;;5.63;;
75090;SDS011;63674;48.048;8.306;2024-02-26T11:05:16;6.27;;;2.70;;
75090;SDS011;63674;48.048;8.306;2024-02-26T11:07:45;6.15;;;2.20;;
75090;SDS011;63674;48.048;8.306;2024-02-26T11:10:15;4.18;;;1.60;;
75090;SDS011;63674;48.048;8.306;2024-02-26T11:12:44;3.80;;;0.90;;
75090;SDS011;63674;48.048;8.306;2024-02-26T11:15:14;4.00;;;1.50;;
75090;SDS011;63674;48.048;8.306;2024-02-26T11:17:44;4.87;;;1.70;;
75090;SDS011;63674;48.048;8.306;2024-02-26T11:20:15;5.10;;;1.95;;
75090;SDS011;63674;48.048;8.306;2024-02-26T11:22:45;3.80;;;1.20;;
75090;SDS011;63674;48.048;8.306;2024-02-26T11:25:13;3.30;;;0.88;;
75090;SDS011;63674;48.048;8.306;2024-02-26T11:27:44;4.03;;;1.30;;
75090;SDS011;63674;48.048;8.306;2024-02-26T11:30:19;3.40;;;0.87;;
75090;SDS011;63674;48.048;8.306;2024-02-26T11:32:49;3.03;;;0.75;;
75090;SDS011;63674;48.048;8.306;2024-02-26T11:35:19;3.13;;;0.80;;
75090;SDS011;63674;48.048;8.306;2024-02-26T11:37:51;3.85;;;1.05;;
75090;SDS011;63674;48.048;8.306;2024-02-26T11:40:24;15.35;;;8.70;;
75090;SDS011;63674;48.048;8.306;2024-02-26T11:42:53;9.07;;;5.43;;
75090;SDS011;63674;48.048;8.306;2024-02-26T11:48:21;3.40;;;1.00;;
75090;SDS011;63674;48.048;8.306;2024-02-26T11:50:52;2.47;;;0.40;;
75090;SDS011;63674;48.048;8.306;2024-02-26T11:53:23;3.03;;;0.70;;
75090;SDS011;63674;48.048;8.306;2024-02-26T11:58:58;4.47;;;1.30;;
75090;SDS011;63674;48.048;8.306;2024-02-26T12:01:44;5.82;;;1.40;;
75090;SDS011;63674;48.048;8.306;2024-02-26T12:04:17;4.53;;;1.15;;
75090;SDS011;63674;48.048;8.306;2024-02-26T12:06:52;3.60;;;1.00;;
75090;SDS011;63674;48.048;8.306;2024-02-26T12:09:36;2.63;;;0.40;;
75090;SDS011;63674;48.048;8.306;2024-02-26T12:12:06;4.00;;;1.20;;
75090;SDS011;63674;48.048;8.306;2024-02-26T12:14:37;4.13;;;1.20;;
75090;SDS011;63674;48.048;8.306;2024-02-26T12:17:07;7.95;;;2.85;;
75090;SDS011;63674;48.048;8.306;2024-02-26T12:19:48;10.00;;;3.95;;
75090;SDS011;63674;48.048;8.306;2024-02-26T12:22:18;6.27;;;2.00;;
75090;SDS011;63674;48.048;8.306;2024-02-26T12:24:47;4.57;;;1.58;;
75090;SDS011;63674;48.048;8.306;2024-02-26T12:27:27;3.30;;;0.63;;
75090;SDS011;63674;48.048;8.306;2024-02-26T12:29:56;4.70;;;1.02;;
75090;SDS011;63674;48.048;8.306;2024-02-26T12:32:24;3.58;;;0.75;;
75090;SDS011;63674;48.048;8.306;2024-02-26T12:34:54;5.07;;;1.20;;
75090;SDS011;63674;48.048;8.306;2024-02-26T12:37:24;4.70;;;0.98;;
75090;SDS011;63674;48.048;8.306;2024-02-26T12:39:52;3.25;;;0.70;;
75090;SDS011;63674;48.048;8.306;2024-02-26T12:42:21;3.30;;;0.70;;
75090;SDS011;63674;48.048;8.306;2024-02-26T12:44:50;2.85;;;0.60;;
75090;SDS011;63674;48.048;8.306;2024-02-26T12:47:20;2.83;;;0.70;;
75090;SDS011;63674;48.048;8.306;2024-02-26T12:49:48;3.22;;;0.90;;
75090;SDS011;63674;48.048;8.306;2024-02-26T12:52:19;8.30;;;2.00;;
75090;SDS011;63674;48.048;8.306;2024-02-26T12:54:48;4.45;;;0.70;;
75090;SDS011;63674;48.048;8.306;2024-02-26T12:57:16;3.65;;;0.98;;
75090;SDS011;63674;48.048;8.306;2024-02-26T12:59:45;5.73;;;1.20;;
75090;SDS011;63674;48.048;8.306;2024-02-26T13:02:14;3.72;;;1.08;;
75090;SDS011;63674;48.048;8.306;2024-02-26T13:04:43;3.65;;;1.08;;
75090;SDS011;63674;48.048;8.306;2024-02-26T13:07:12;3.13;;;0.60;;
75090;SDS011;63674;48.048;8.306;2024-02-26T13:09:42;3.50;;;0.88;;
75090;SDS011;63674;48.048;8.306;2024-02-26T13:12:10;4.67;;;1.40;;
75090;SDS011;63674;48.048;8.306;2024-02-26T13:14:40;3.75;;;0.88;;
75090;SDS011;63674;48.048;8.306;2024-02-26T13:17:09;5.30;;;0.90;;
75090;SDS011;63674;48.048;8.306;2024-02-26T13:19:48;5.47;;;0.93;;
75090;SDS011;63674;48.048;8.306;2024-02-26T13:22:18;4.25;;;1.10;;
75090;SDS011;63674;48.048;8.306;2024-02-26T13:24:54;3.50;;;1.00;;
75090;SDS011;63674;48.048;8.306;2024-02-26T13:27:24;4.00;;;0.90;;
75090;SDS011;63674;48.048;8.306;2024-02-26T13:30:03;3.40;;;0.70;;
75090;SDS011;63674;48.048;8.306;2024-02-26T13:32:35;3.50;;;0.80;;
75090;SDS011;63674;48.048;8.306;2024-02-26T13:35:06;3.55;;;0.90;;
75090;SDS011;63674;48.048;8.306;2024-02-26T13:37:37;3.43;;;0.93;;
75090;SDS011;63674;48.048;8.306;2024-02-26T13:40:08;4.20;;;1.15;;
75090;SDS011;63674;48.048;8.306;2024-02-26T13:42:38;4.53;;;1.77;;
75090;SDS011;63674;48.048;8.306;2024-02-26T13:45:08;3.45;;;0.95;;
75090;SDS011;63674;48.048;8.306;2024-02-26T13:47:37;3.40;;;0.90;;
75090;SDS011;63674;48.048;8.306;2024-02-26T13:50:07;3.53;;;0.80;;
75090;SDS011;63674;48.048;8.306;2024-02-26T13:52:36;3.50;;;0.77;;
75090;SDS011;63674;48.048;8.306;2024-02-26T13:55:05;4.00;;;0.90;;
75090;SDS011;63674;48.048;8.306;2024-02-26T13:57:35;3.42;;;0.88;;
75090;SDS011;63674;48.048;8.306;2024-02-26T14:00:05;3.72;;;0.93;;
75090;SDS011;63674;48.048;8.306;2024-02-26T14:02:36;6.70;;;0.83;;
75090;SDS011;63674;48.048;8.306;2024-02-26T14:05:05;5.68;;;1.05;;
75090;SDS011;63674;48.048;8.306;2024-02-26T14:07:34;3.42;;;0.70;;
75090;SDS011;63674;48.048;8.306;2024-02-26T14:10:04;3.25;;;0.70;;
75090;SDS011;63674;48.048;8.306;2024-02-26T14:12:35;3.35;;;0.77;;
75090;SDS011;63674;48.048;8.306;2024-02-26T14:15:05;5.53;;;1.07;;
75090;SDS011;63674;48.048;8.306;2024-02-26T14:17:37;5.32;;;1.20;;
75090;SDS011;63674;48.048;8.306;2024-02-26T14:20:06;4.90;;;1.30;;
75090;SDS011;63674;48.048;8.306;2024-02-26T14:22:36;3.35;;;0.77;;
75090;SDS011;63674;48.048;8.306;2024-02-26T14:25:04;3.78;;;0.90;;
75090;SDS011;63674;48.048;8.306;2024-02-26T14:27:37;3.63;;;0.90;;
75090;SDS011;63674;48.048;8.306;2024-02-26T14:30:06;7.55;;;1.70;;
75090;SDS011;63674;48.048;8.306;2024-02-26T14:32:35;3.38;;;0.90;;
75090;SDS011;63674;48.048;8.306;2024-02-26T14:35:05;3.80;;;0.90;;
75090;SDS011;63674;48.048;8.306;2024-02-26T14:37:41;3.75;;;0.75;;
75090;SDS011;63674;48.048;8.306;2024-02-26T14:40:14;4.63;;;0.80;;
75090;SDS011;63674;48.048;8.306;2024-02-26T14:42:44;5.05;;;1.17;;
75090;SDS011;63674;48.048;8.306;2024-02-26T14:45:13;6.15;;;1.00;;
75090;SDS011;63674;48.048;8.306;2024-02-26T14:47:41;4.13;;;1.05;;
75090;SDS011;63674;48.048;8.306;2024-02-26T14:50:09;4.32;;;1.10;;
75090;SDS011;63674;48.048;8.306;2024-02-26T14:52:38;7.00;;;1.43;;
75090;SDS011;63674;48.048;8.306;2024-02-26T14:55:07;5.05;;;1.20;;
75090;SDS011;63674;48.048;8.306;2024-02-26T14:57:35;4.63;;;1.02;;
75090;SDS011;63674;48.048;8.306;2024-02-26T15:00:06;5.72;;;1.20;;
75090;SDS011;63674;48.048;8.306;2024-02-26T15:02:37;5.40;;;0.95;;
75090;SDS011;63674;48.048;8.306;2024-02-26T15:05:05;3.77;;;0.97;;
75090;SDS011;63674;48.048;8.306;2024-02-26T15:07:38;3.67;;;0.82;;
75090;SDS011;63674;48.048;8.306;2024-02-26T15:10:08;5.63;;;0.80;;
75090;SDS011;63674;48.048;8.306;2024-02-26T15:12:37;3.42;;;0.77;;
75090;SDS011;63674;48.048;8.306;2024-02-26T15:15:07;3.72;;;1.00;;
75090;SDS011;63674;48.048;8.306;2024-02-26T15:17:36;3.67;;;0.90;;